createdAt,value
2022-11-25T00:00:48.190Z,40.16
2022-11-25T00:03:19.048Z,39.88
2022-11-25T00:05:49.051Z,39.99
2022-11-25T00:08:19.429Z,39.86
2022-11-25T00:10:51.321Z,39.82
2022-11-25T00:13:21.352Z,39.67
2022-11-25T00:15:50.835Z,39.82
2022-11-25T00:18:21.137Z,39.72
2022-11-25T00:20:51.654Z,39.72
2022-11-25T00:23:21.531Z,39.61
2022-11-25T00:25:54.213Z,39.80
2022-11-25T00:28:24.589Z,39.99
2022-11-25T00:30:54.733Z,39.76
2022-11-25T00:33:25.166Z,39.64
2022-11-25T00:35:55.646Z,39.81
2022-11-25T00:38:26.199Z,39.71
2022-11-25T00:41:11.606Z,39.54
2022-11-25T00:43:58.322Z,39.53
2022-11-25T00:46:28.762Z,39.50
2022-11-25T00:48:59.238Z,39.67
2022-11-25T00:51:29.911Z,39.39
2022-11-25T00:54:00.455Z,39.47
2022-11-25T00:56:33.076Z,39.48
2022-11-25T00:59:03.559Z,39.35
2022-11-25T01:01:34.637Z,39.57
2022-11-25T01:04:05.633Z,39.40
2022-11-25T01:06:37.002Z,39.56
2022-11-25T01:09:08.065Z,39.47
2022-11-25T01:11:40.399Z,39.40
2022-11-25T01:14:10.898Z,39.63
2022-11-25T01:16:41.303Z,39.39
2022-11-25T01:19:12.733Z,39.54
2022-11-25T01:21:43.786Z,39.36
2022-11-25T01:24:17.662Z,39.50
2022-11-25T01:26:50.035Z,39.33
2022-11-25T01:29:21.832Z,39.29
2022-11-25T01:31:53.184Z,39.59
2022-11-25T01:34:26.349Z,39.42
2022-11-25T01:36:57.439Z,39.20
2022-11-25T01:39:32.800Z,39.33
2022-11-25T01:42:06.021Z,39.22
2022-11-25T01:44:41.678Z,39.24
2022-11-25T01:47:23.796Z,39.26
2022-11-25T01:50:05.455Z,39.00
2022-11-25T01:52:41.956Z,38.96
2022-11-25T01:55:18.023Z,39.10
2022-11-25T01:57:57.461Z,39.32
2022-11-25T02:00:28.190Z,39.39
2022-11-25T02:03:00.974Z,39.17
2022-11-25T02:05:41.785Z,39.00
2022-11-25T02:08:14.624Z,39.04
2022-11-25T02:10:47.313Z,39.02
2022-11-25T02:13:19.808Z,39.23
2022-11-25T02:15:49.982Z,39.26
2022-11-25T02:18:20.806Z,39.25
2022-11-25T02:20:51.277Z,39.76
2022-11-25T02:23:31.286Z,39.57
2022-11-25T02:26:04.210Z,39.74
2022-11-25T02:28:35.938Z,39.97
2022-11-25T02:31:05.985Z,39.89
2022-11-25T02:33:36.158Z,40.12
2022-11-25T02:36:13.676Z,40.25
2022-11-25T02:38:50.300Z,40.71
2022-11-25T02:41:27.552Z,40.60
2022-11-25T02:43:58.253Z,40.76
2022-11-25T02:46:31.271Z,40.89
2022-11-25T02:49:10.815Z,40.96
2022-11-25T02:51:45.125Z,41.06
2022-11-25T02:54:18.214Z,41.30
2022-11-25T02:56:50.836Z,41.62
2022-11-25T02:59:21.483Z,41.46
2022-11-25T03:01:51.416Z,41.75
2022-11-25T03:04:21.604Z,41.86
2022-11-25T03:07:01.804Z,41.96
2022-11-25T03:09:31.912Z,41.65
2022-11-25T03:12:23.115Z,42.15
2022-11-25T03:14:53.516Z,41.67
2022-11-25T03:17:23.521Z,41.90
2022-11-25T03:19:53.967Z,41.90
2022-11-25T03:22:24.200Z,41.97
2022-11-25T03:24:54.271Z,42.13
2022-11-25T03:27:30.283Z,41.92
2022-11-25T03:30:00.688Z,42.40
2022-11-25T03:32:31.192Z,42.23
2022-11-25T03:35:01.891Z,42.19
2022-11-25T03:37:31.822Z,42.02
2022-11-25T03:40:01.985Z,42.43
2022-11-25T03:42:34.371Z,42.28
2022-11-25T03:45:05.383Z,42.06
2022-11-25T03:47:35.932Z,42.42
2022-11-25T03:50:07.162Z,42.46
2022-11-25T03:52:37.696Z,42.34
2022-11-25T03:55:08.962Z,42.31
2022-11-25T03:57:41.798Z,42.37
2022-11-25T04:00:13.720Z,42.56
2022-11-25T04:02:44.338Z,42.49
2022-11-25T04:05:15.041Z,42.45
2022-11-25T04:07:45.195Z,42.46
2022-11-25T04:10:16.526Z,43.10
2022-11-25T04:12:49.820Z,42.98
2022-11-25T04:15:21.104Z,43.28
2022-11-25T04:17:51.469Z,42.91
2022-11-25T04:20:22.537Z,42.87
2022-11-25T04:22:53.347Z,43.37
2022-11-25T04:25:23.401Z,42.96
2022-11-25T04:27:55.154Z,43.18
2022-11-25T04:30:25.584Z,43.00
2022-11-25T04:32:56.769Z,43.28
2022-11-25T04:35:26.902Z,43.67
2022-11-25T04:38:01.413Z,43.38
2022-11-25T04:40:33.344Z,43.13
2022-11-25T04:43:10.379Z,43.16
2022-11-25T04:46:06.783Z,43.31
2022-11-25T04:48:31.635Z,43.32
2022-11-25T04:51:01.649Z,43.19
2022-11-25T04:53:31.846Z,43.74
2022-11-25T04:56:01.862Z,43.50
2022-11-25T04:58:52.536Z,43.24
2022-11-25T05:01:23.100Z,43.67
2022-11-25T05:03:57.477Z,43.59
2022-11-25T05:06:28.308Z,43.55
2022-11-25T05:08:58.258Z,43.29
2022-11-25T05:11:32.040Z,43.80
2022-11-25T05:14:04.014Z,43.77
2022-11-25T05:16:34.625Z,44.05
2022-11-25T05:19:05.335Z,43.61
2022-11-25T05:21:36.844Z,43.70
2022-11-25T05:24:07.897Z,43.87
2022-11-25T05:26:38.372Z,44.00
2022-11-25T05:29:12.188Z,43.49
2022-11-25T05:31:42.914Z,44.02
2022-11-25T05:34:13.813Z,43.80
2022-11-25T05:36:44.314Z,44.03
2022-11-25T05:39:14.554Z,43.93
2022-11-25T05:41:44.658Z,44.01
2022-11-25T05:44:31.741Z,43.99
2022-11-25T05:47:02.062Z,44.13
2022-11-25T05:49:32.680Z,44.17
2022-11-25T05:52:03.794Z,43.71
2022-11-25T05:54:34.898Z,44.22
2022-11-25T05:57:05.503Z,44.29
2022-11-25T05:59:37.389Z,44.34
2022-11-25T06:02:07.939Z,44.34
2022-11-25T06:04:38.900Z,44.06
2022-11-25T06:07:09.614Z,43.73
2022-11-25T06:09:40.298Z,44.04
2022-11-25T06:12:10.631Z,44.60
2022-11-25T06:14:42.796Z,44.52
2022-11-25T06:17:13.308Z,44.86
2022-11-25T06:19:43.628Z,45.38
2022-11-25T06:22:14.726Z,45.39
2022-11-25T06:24:47.919Z,45.37
2022-11-25T06:27:22.747Z,45.30
2022-11-25T06:29:55.302Z,45.27
2022-11-25T06:32:25.338Z,44.98
2022-11-25T06:34:55.511Z,44.93
2022-11-25T06:37:26.069Z,44.83
2022-11-25T06:39:56.173Z,44.90
2022-11-25T06:42:26.868Z,45.02
2022-11-25T06:44:59.013Z,44.85
2022-11-25T06:47:29.718Z,44.99
2022-11-25T06:49:59.758Z,44.78
2022-11-25T06:52:32.595Z,44.60
2022-11-25T06:55:03.167Z,44.30
2022-11-25T06:57:33.617Z,43.75
2022-11-25T07:00:07.245Z,43.95
2022-11-25T07:02:42.834Z,43.83
2022-11-25T07:05:15.922Z,43.69
2022-11-25T07:07:46.435Z,43.73
2022-11-25T07:10:17.186Z,43.91
2022-11-25T07:12:47.590Z,43.71
2022-11-25T07:15:20.505Z,43.37
2022-11-25T07:17:50.561Z,43.77
2022-11-25T07:20:21.410Z,43.46
2022-11-25T07:22:52.408Z,43.49
2022-11-25T07:25:25.462Z,43.57
2022-11-25T07:28:00.320Z,43.51
2022-11-25T07:33:22.527Z,43.47
2022-11-25T07:35:52.895Z,43.82
2022-11-25T07:38:23.324Z,43.57
2022-11-25T07:40:53.760Z,43.74
2022-11-25T07:43:24.489Z,43.86
2022-11-25T07:45:57.011Z,44.03
2022-11-25T07:48:26.909Z,43.88
2022-11-25T07:50:57.489Z,43.77
2022-11-25T07:53:27.262Z,44.28
2022-11-25T07:55:57.332Z,45.03
2022-11-25T07:58:28.242Z,45.89
2022-11-25T08:01:04.443Z,46.80
2022-11-25T08:03:37.407Z,47.01
2022-11-25T08:06:10.761Z,47.07
2022-11-25T08:08:42.868Z,46.93
2022-11-25T08:11:16.352Z,46.27
2022-11-25T08:13:47.292Z,46.07
2022-11-25T08:16:23.728Z,45.51
2022-11-25T08:18:59.483Z,45.17
2022-11-25T08:21:30.624Z,44.94
2022-11-25T08:24:03.660Z,44.74
2022-11-25T08:26:38.387Z,44.65
2022-11-25T08:29:10.295Z,44.53
2022-11-25T08:31:43.315Z,44.29
2022-11-25T08:34:21.597Z,44.10
2022-11-25T08:36:58.345Z,44.21
2022-11-25T08:39:51.110Z,43.94
2022-11-25T08:42:19.772Z,43.84
2022-11-25T08:44:55.793Z,43.92
2022-11-25T08:47:28.522Z,43.82
2022-11-25T08:50:10.292Z,43.67
2022-11-25T08:52:40.542Z,43.82
2022-11-25T08:55:12.514Z,43.81
2022-11-25T08:57:43.550Z,43.68
2022-11-25T09:00:15.726Z,43.71
2022-11-25T09:02:48.252Z,43.86
2022-11-25T09:05:20.565Z,43.82
2022-11-25T09:07:51.268Z,43.93
2022-11-25T09:10:21.565Z,43.72
2022-11-25T09:12:52.674Z,44.11
2022-11-25T09:15:22.825Z,44.23
2022-11-25T09:18:01.547Z,44.29
2022-11-25T09:20:34.381Z,44.47
2022-11-25T09:23:10.921Z,44.02
2022-11-25T09:25:41.013Z,44.59
2022-11-25T09:28:12.693Z,44.39
2022-11-25T09:30:42.776Z,44.46
2022-11-25T09:33:15.286Z,44.88
2022-11-25T09:35:46.178Z,44.48
2022-11-25T09:38:17.385Z,44.65
2022-11-25T09:40:57.026Z,44.81
2022-11-25T09:44:02.707Z,44.85
2022-11-25T09:46:56.846Z,45.15
2022-11-25T09:49:50.366Z,45.35
2022-11-25T09:52:36.831Z,45.33
2022-11-25T09:55:18.681Z,45.40
2022-11-25T09:58:09.281Z,45.18
2022-11-25T10:00:42.966Z,45.41
2022-11-25T10:03:26.364Z,45.42
2022-11-25T10:06:07.981Z,45.84
2022-11-25T10:08:42.416Z,45.66
2022-11-25T10:11:30.988Z,45.67
2022-11-25T10:14:10.258Z,45.69
2022-11-25T10:16:52.402Z,45.75
2022-11-25T10:19:39.548Z,45.88
2022-11-25T10:22:27.192Z,45.79
2022-11-25T10:25:05.819Z,46.01
2022-11-25T10:27:48.515Z,45.53
2022-11-25T10:30:24.378Z,45.32
2022-11-25T10:33:02.619Z,45.21
2022-11-25T10:35:40.924Z,45.30
2022-11-25T10:38:22.652Z,45.36
2022-11-25T10:40:55.363Z,45.50
2022-11-25T10:43:30.328Z,45.36
2022-11-25T10:46:18.329Z,45.33
2022-11-25T10:49:03.567Z,45.47
2022-11-25T10:51:42.967Z,45.43
2022-11-25T10:54:26.867Z,45.68
2022-11-25T10:57:00.678Z,45.73
2022-11-25T10:59:34.536Z,45.59
2022-11-25T11:02:31.634Z,45.50
2022-11-25T11:05:07.227Z,45.66
2022-11-25T11:07:40.540Z,45.60
2022-11-25T11:10:22.736Z,45.60
2022-11-25T11:13:04.373Z,45.30
2022-11-25T11:15:49.507Z,45.62
2022-11-25T11:18:28.353Z,45.89
2022-11-25T11:21:01.709Z,45.63
2022-11-25T11:23:32.310Z,45.67
2022-11-25T11:26:07.052Z,45.78
2022-11-25T11:28:43.980Z,45.80
2022-11-25T11:31:23.503Z,45.77
2022-11-25T11:34:09.614Z,45.61
2022-11-25T11:37:01.504Z,45.62
2022-11-25T11:40:17.095Z,45.42
2022-11-25T11:43:05.396Z,45.88
2022-11-25T11:45:53.498Z,45.75
2022-11-25T11:48:34.270Z,45.70
2022-11-25T11:51:21.625Z,45.73
2022-11-25T11:54:06.819Z,45.62
2022-11-25T11:56:44.310Z,45.80
2022-11-25T11:59:49.924Z,45.63
2022-11-25T12:02:54.726Z,45.83
2022-11-25T12:05:31.955Z,45.41
2022-11-25T12:08:13.562Z,45.70
2022-11-25T12:10:50.961Z,45.60
2022-11-25T12:13:35.119Z,45.86
2022-11-25T12:16:14.858Z,45.78
2022-11-25T12:18:55.457Z,45.45
2022-11-25T12:21:47.225Z,45.75
2022-11-25T12:24:29.730Z,45.63
2022-11-25T12:27:09.432Z,45.39
2022-11-25T12:29:48.288Z,45.19
2022-11-25T12:32:49.626Z,45.32
2022-11-25T12:35:34.186Z,45.34
2022-11-25T12:38:19.365Z,45.19
2022-11-25T12:40:59.886Z,45.49
2022-11-25T12:43:44.850Z,45.07
2022-11-25T12:46:36.708Z,45.12
2022-11-25T12:49:20.141Z,45.12
2022-11-25T12:52:29.089Z,44.99
2022-11-25T12:55:19.459Z,45.12
2022-11-25T12:58:41.133Z,44.99
2022-11-25T13:01:58.256Z,44.78
2022-11-25T13:08:33.145Z,45.26
2022-11-25T13:11:41.331Z,45.19
2022-11-25T13:14:28.633Z,45.16
2022-11-25T13:17:01.354Z,45.43
2022-11-25T13:19:37.206Z,45.25
2022-11-25T13:22:30.854Z,45.20
2022-11-25T13:25:02.434Z,44.89
2022-11-25T13:27:36.637Z,44.94
2022-11-25T13:30:09.057Z,45.16
2022-11-25T13:32:47.177Z,44.98
2022-11-25T13:35:58.177Z,45.30
2022-11-25T13:39:08.775Z,45.34
2022-11-25T13:42:00.956Z,45.28
2022-11-25T13:44:35.815Z,45.17
2022-11-25T13:47:33.018Z,45.17
2022-11-25T13:50:11.890Z,45.35
2022-11-25T13:52:51.927Z,44.98
2022-11-25T13:55:37.577Z,44.99
2022-11-25T13:58:24.749Z,44.78
2022-11-25T14:01:29.837Z,44.87
2022-11-25T14:04:06.699Z,44.60
2022-11-25T14:07:09.223Z,44.75
2022-11-25T14:10:10.170Z,44.85
2022-11-25T14:13:05.553Z,44.48
2022-11-25T14:16:16.453Z,44.54
2022-11-25T14:19:50.653Z,44.54
2022-11-25T14:23:17.095Z,44.83
2022-11-25T14:25:55.706Z,44.41
2022-11-25T14:28:38.773Z,44.63
2022-11-25T14:31:16.612Z,44.27
2022-11-25T14:33:55.100Z,44.21
2022-11-25T14:36:31.952Z,43.91
2022-11-25T14:39:08.990Z,44.15
2022-11-25T14:41:44.851Z,43.96
2022-11-25T14:44:26.698Z,44.46
2022-11-25T14:46:58.557Z,44.05
2022-11-25T14:50:05.240Z,43.85
2022-11-25T14:52:40.926Z,43.75
2022-11-25T14:55:13.296Z,43.67
2022-11-25T14:57:48.607Z,43.57
2022-11-25T15:00:23.321Z,43.78
2022-11-25T15:03:00.965Z,43.95
2022-11-25T15:05:37.318Z,44.07
2022-11-25T15:08:18.241Z,44.33
2022-11-25T15:10:56.573Z,44.19
2022-11-25T15:13:36.543Z,44.15
2022-11-25T15:16:16.304Z,44.46
2022-11-25T15:18:54.401Z,44.32
2022-11-25T15:21:31.868Z,44.61
2022-11-25T15:24:03.828Z,44.63
2022-11-25T15:26:38.090Z,44.78
2022-11-25T15:29:16.164Z,44.69
2022-11-25T15:31:52.678Z,44.72
2022-11-25T15:34:25.327Z,44.80
2022-11-25T15:36:56.008Z,44.45
2022-11-25T15:39:31.066Z,44.58
2022-11-25T15:42:17.816Z,44.49
2022-11-25T15:44:56.913Z,44.42
2022-11-25T15:47:32.356Z,44.43
2022-11-25T15:50:08.005Z,44.43
2022-11-25T15:52:43.311Z,44.40
2022-11-25T15:55:30.654Z,44.24
2022-11-25T15:58:08.404Z,44.15
2022-11-25T16:00:42.104Z,44.08
2022-11-25T16:03:25.354Z,44.24
2022-11-25T16:05:58.192Z,44.18
2022-11-25T16:08:37.543Z,44.05
2022-11-25T16:11:20.013Z,44.13
2022-11-25T16:13:51.299Z,44.15
2022-11-25T16:16:28.060Z,44.03
2022-11-25T16:19:23.802Z,44.12
2022-11-25T16:22:00.929Z,44.15
2022-11-25T16:24:39.312Z,44.09
2022-11-25T16:27:24.090Z,44.14
2022-11-25T16:30:09.987Z,44.15
2022-11-25T16:32:40.717Z,44.19
2022-11-25T16:35:19.672Z,44.22
2022-11-25T16:37:50.682Z,44.47
2022-11-25T16:40:22.244Z,44.14
2022-11-25T16:42:53.971Z,44.58
2022-11-25T16:45:27.356Z,44.58
2022-11-25T16:47:58.306Z,44.71
2022-11-25T16:50:30.779Z,44.46
2022-11-25T16:53:01.995Z,44.63
2022-11-25T16:55:34.256Z,44.36
2022-11-25T16:58:05.601Z,44.50
2022-11-25T17:00:35.822Z,44.70
2022-11-25T17:03:09.379Z,44.59
2022-11-25T17:05:41.438Z,44.51
2022-11-25T17:08:11.751Z,44.59
2022-11-25T17:10:44.349Z,44.40
2022-11-25T17:13:23.748Z,44.50
2022-11-25T17:15:55.115Z,44.85
2022-11-25T17:18:26.336Z,44.48
2022-11-25T17:20:57.955Z,44.65
2022-11-25T17:23:29.032Z,44.65
2022-11-25T17:25:59.676Z,44.80
2022-11-25T17:28:29.459Z,44.68
2022-11-25T17:31:00.200Z,44.45
2022-11-25T17:33:30.706Z,44.48
2022-11-25T17:36:03.380Z,44.62
2022-11-25T17:38:34.188Z,44.58
2022-11-25T17:41:04.692Z,44.45
2022-11-25T17:43:35.856Z,44.57
2022-11-25T17:46:05.658Z,44.45
2022-11-25T17:48:36.773Z,44.42
2022-11-25T17:51:09.213Z,44.54
2022-11-25T17:53:40.421Z,44.21
2022-11-25T17:56:25.485Z,44.45
2022-11-25T17:58:57.066Z,44.75
2022-11-25T18:01:27.782Z,44.40
2022-11-25T18:03:58.668Z,44.62
2022-11-25T18:06:31.649Z,44.77
2022-11-25T18:09:03.269Z,44.60
2022-11-25T18:11:34.631Z,44.34
2022-11-25T18:14:04.608Z,44.70
2022-11-25T18:16:35.930Z,44.60
2022-11-25T18:19:06.630Z,44.54
2022-11-25T18:21:39.172Z,44.54
2022-11-25T18:24:10.275Z,44.32
2022-11-25T18:26:47.839Z,44.19
2022-11-25T18:29:21.840Z,44.16
2022-11-25T18:31:53.888Z,44.09
2022-11-25T18:34:26.471Z,44.22
2022-11-25T18:36:59.142Z,44.07
2022-11-25T18:39:29.874Z,44.06
2022-11-25T18:42:01.801Z,43.99
2022-11-25T18:44:32.803Z,44.00
2022-11-25T18:47:03.483Z,44.19
2022-11-25T18:49:33.663Z,44.08
2022-11-25T18:52:07.296Z,43.90
2022-11-25T18:54:38.992Z,43.62
2022-11-25T18:57:12.965Z,43.78
2022-11-25T19:00:00.222Z,43.69
2022-11-25T19:02:40.890Z,43.47
2022-11-25T19:05:21.581Z,43.44
2022-11-25T19:07:57.405Z,43.62
2022-11-25T19:10:33.838Z,43.75
2022-11-25T19:13:11.713Z,43.61
2022-11-25T19:15:42.776Z,43.35
2022-11-25T19:18:17.155Z,43.02
2022-11-25T19:20:48.160Z,43.28
2022-11-25T19:23:25.786Z,43.22
2022-11-25T19:25:58.896Z,43.15
2022-11-25T19:28:41.848Z,42.92
2022-11-25T19:31:14.038Z,43.24
2022-11-25T19:33:47.649Z,42.98
2022-11-25T19:36:27.488Z,42.92
2022-11-25T19:39:00.643Z,42.99
2022-11-25T19:41:31.471Z,42.95
2022-11-25T19:44:02.344Z,42.96
2022-11-25T19:46:52.419Z,43.06
2022-11-25T19:49:24.430Z,43.08
2022-11-25T19:51:54.248Z,43.14
2022-11-25T19:54:27.268Z,43.28
2022-11-25T19:56:58.249Z,43.25
2022-11-25T19:59:28.782Z,43.31
2022-11-25T20:02:00.324Z,43.30
2022-11-25T20:04:30.709Z,43.30
2022-11-25T20:07:00.782Z,43.37
2022-11-25T20:09:33.640Z,43.23
2022-11-25T20:12:14.718Z,43.32
2022-11-25T20:14:45.835Z,43.41
2022-11-25T20:17:28.922Z,43.07
2022-11-25T20:20:05.828Z,43.21
2022-11-25T20:22:40.710Z,42.90
2022-11-25T20:25:17.490Z,43.06
2022-11-25T20:27:48.201Z,43.26
2022-11-25T20:30:21.120Z,43.09
2022-11-25T20:32:52.045Z,43.05
2022-11-25T20:35:23.577Z,43.04
2022-11-25T20:37:55.073Z,43.12
2022-11-25T20:40:41.027Z,43.17
2022-11-25T20:43:26.605Z,43.13
2022-11-25T20:45:57.718Z,43.18
2022-11-25T20:48:29.734Z,42.94
2022-11-25T20:51:05.046Z,43.06
2022-11-25T20:53:37.223Z,43.46
2022-11-25T20:56:12.321Z,43.43
2022-11-25T20:58:42.565Z,43.63
2022-11-25T21:01:14.681Z,43.51
2022-11-25T21:03:46.099Z,43.74
2022-11-25T21:06:23.192Z,43.76
2022-11-25T21:08:56.826Z,43.87
2022-11-25T21:11:33.973Z,43.86
2022-11-25T21:14:03.953Z,43.69
2022-11-25T21:16:34.138Z,44.17
2022-11-25T21:19:04.878Z,44.00
2022-11-25T21:21:40.105Z,44.13
2022-11-25T21:24:24.968Z,44.25
2022-11-25T21:26:59.060Z,44.20
2022-11-25T21:29:31.126Z,44.11
2022-11-25T21:32:01.338Z,44.35
2022-11-25T21:34:31.514Z,44.21
2022-11-25T21:37:09.590Z,44.34
2022-11-25T21:39:40.333Z,44.42
2022-11-25T21:42:24.868Z,44.25
2022-11-25T21:44:57.283Z,44.29
2022-11-25T21:47:34.352Z,44.39
2022-11-25T21:50:04.459Z,44.39
2022-11-25T21:52:35.011Z,44.38
2022-11-25T21:55:09.559Z,44.32
2022-11-25T21:57:42.897Z,44.33
2022-11-25T22:00:26.035Z,44.43
2022-11-25T22:02:57.254Z,44.62
2022-11-25T22:05:28.324Z,44.44
2022-11-25T22:08:00.470Z,44.72
2022-11-25T22:10:31.158Z,44.33
2022-11-25T22:13:04.357Z,44.22
2022-11-25T22:15:37.380Z,44.63
2022-11-25T22:18:08.608Z,44.59
2022-11-25T22:20:41.629Z,44.58
2022-11-25T22:23:18.098Z,44.50
2022-11-25T22:25:50.752Z,44.45
2022-11-25T22:28:26.133Z,44.33
2022-11-25T22:31:00.597Z,44.26
2022-11-25T22:33:36.143Z,44.48
2022-11-25T22:36:07.546Z,44.73
2022-11-25T22:38:38.651Z,44.38
2022-11-25T22:41:09.290Z,44.46
2022-11-25T22:43:52.525Z,44.38
2022-11-25T22:46:23.134Z,44.45
2022-11-25T22:48:53.848Z,44.52
2022-11-25T22:51:29.962Z,44.21
2022-11-25T22:54:01.662Z,44.56
2022-11-25T22:56:33.854Z,44.28
2022-11-25T22:59:05.764Z,44.24
2022-11-25T23:01:36.518Z,44.59
2022-11-25T23:04:34.455Z,44.40
2022-11-25T23:07:05.647Z,44.45
2022-11-25T23:09:36.413Z,44.41
2022-11-25T23:12:07.151Z,44.28
2022-11-25T23:14:39.553Z,44.49
2022-11-25T23:17:19.607Z,44.26
2022-11-25T23:19:51.046Z,44.17
2022-11-25T23:22:22.408Z,43.97
2022-11-25T23:24:52.421Z,44.33
2022-11-25T23:30:19.742Z,44.49
2022-11-25T23:32:55.068Z,44.45
2022-11-25T23:35:41.148Z,44.52
2022-11-25T23:38:21.010Z,44.15
2022-11-25T23:40:51.473Z,44.35
2022-11-25T23:43:22.073Z,44.13
2022-11-25T23:45:58.268Z,44.41
2022-11-25T23:48:33.629Z,44.36
2022-11-25T23:51:05.164Z,44.26
2022-11-25T23:53:40.720Z,44.51
2022-11-25T23:56:11.446Z,44.36
2022-11-25T23:58:42.621Z,44.26
